Terminal Aerodrome Forecast
Issued by NWS Sterling, VA

Home | Current Version | Previous Version | Text Only | Print | Product List | Glossary On
Versions: 1 2 3 4 5 6 7 8 9 10 11 12 13 14 15 16 17
000
FTUS41 KLWX 302051 AAA
TAFMRB
TAF AMD
KMRB 302051Z 3021/3118 17005KT P6SM SCT110 BKN250
     FM302130 27010G25KT 2SM TSRA BR OVC025CB
     FM302230 VRB03KT P6SM VCTS BKN050CB
     FM310000 VRB03KT P6SM BKN250
     FM310400 VRB03KT 3SM BR SCT110 BKN250
     FM311300 35004KT P6SM FEW200 FEW250=

USA.gov is the U.S. government's official web portal to all federal, state and local government web resources and services.